createdAt,value
2017-12-04T00:01:28.022Z,47.00
2017-12-04T00:03:55.451Z,48.03
2017-12-04T00:06:22.862Z,50.65
2017-12-04T00:08:50.274Z,47.27
2017-12-04T00:11:17.682Z,49.43
2017-12-04T00:13:45.083Z,40.60
2017-12-04T00:16:12.482Z,46.00
2017-12-04T00:18:39.928Z,46.50
2017-12-04T00:21:07.351Z,41.80
2017-12-04T00:23:34.738Z,44.10
2017-12-04T00:26:02.142Z,46.93
2017-12-04T00:28:29.541Z,42.50
2017-12-04T00:30:56.970Z,45.60
2017-12-04T00:33:24.370Z,41.37
2017-12-04T00:35:51.778Z,45.27
2017-12-04T00:38:19.198Z,43.22
2017-12-04T00:40:46.597Z,45.53
2017-12-04T00:43:14.011Z,41.90
2017-12-04T00:45:41.417Z,55.78
2017-12-04T00:48:08.811Z,46.85
2017-12-04T00:50:36.210Z,50.60
2017-12-04T00:53:03.614Z,45.00
2017-12-04T00:55:31.007Z,42.90
2017-12-04T00:57:58.415Z,45.88
2017-12-04T01:00:25.818Z,36.53
2017-12-04T01:02:53.228Z,43.45
2017-12-04T01:05:20.622Z,44.42
2017-12-04T01:07:48.029Z,44.10
2017-12-04T01:10:15.434Z,41.25
2017-12-04T01:12:42.844Z,42.55
2017-12-04T01:15:10.246Z,42.38
2017-12-04T01:17:37.652Z,45.72
2017-12-04T01:20:05.056Z,47.92
2017-12-04T01:22:32.450Z,43.33
2017-12-04T01:24:59.854Z,57.28
2017-12-04T01:27:27.256Z,56.43
2017-12-04T01:29:54.659Z,53.60
2017-12-04T01:32:22.051Z,53.23
2017-12-04T01:34:49.486Z,55.75
2017-12-04T01:37:16.891Z,55.40
2017-12-04T01:39:44.302Z,47.62
2017-12-04T01:42:11.711Z,50.88
2017-12-04T01:44:39.122Z,48.67
2017-12-04T01:47:06.527Z,51.75
2017-12-04T01:49:33.929Z,48.53
2017-12-04T01:52:01.361Z,50.22
2017-12-04T01:54:28.753Z,43.70
2017-12-04T01:56:56.139Z,46.10
2017-12-04T01:59:23.558Z,44.35
2017-12-04T02:01:50.962Z,55.50
2017-12-04T02:04:18.393Z,51.50
2017-12-04T02:06:45.800Z,49.78
2017-12-04T02:09:13.206Z,55.88
2017-12-04T02:11:40.613Z,45.85
2017-12-04T02:14:08.014Z,47.80
2017-12-04T02:16:35.430Z,49.17
2017-12-04T02:19:02.847Z,51.08
2017-12-04T02:21:30.251Z,51.92
2017-12-04T02:23:57.654Z,61.17
2017-12-04T02:26:25.054Z,56.05
2017-12-04T02:28:52.469Z,58.20
2017-12-04T02:31:20.079Z,58.33
2017-12-04T02:33:47.487Z,46.70
2017-12-04T02:36:14.890Z,53.37
2017-12-04T02:38:42.290Z,51.20
2017-12-04T02:41:09.702Z,56.05
2017-12-04T02:43:37.095Z,49.20
2017-12-04T02:46:04.496Z,54.40
2017-12-04T02:48:31.896Z,56.73
2017-12-04T02:50:59.286Z,54.10
2017-12-04T02:53:26.690Z,47.63
2017-12-04T02:55:54.094Z,45.50
2017-12-04T02:58:21.486Z,45.00
2017-12-04T03:00:48.891Z,50.13
2017-12-04T03:03:16.281Z,42.58
2017-12-04T03:05:43.694Z,49.70
2017-12-04T03:08:11.086Z,51.77
2017-12-04T03:10:38.488Z,43.65
2017-12-04T03:13:05.949Z,46.27
2017-12-04T03:15:33.338Z,50.53
2017-12-04T03:18:00.746Z,40.85
2017-12-04T03:20:28.144Z,52.20
2017-12-04T03:22:55.547Z,50.53
2017-12-04T03:25:22.949Z,49.93
2017-12-04T03:27:50.337Z,42.73
2017-12-04T03:30:17.743Z,52.83
2017-12-04T03:32:45.134Z,51.73
2017-12-04T03:35:12.538Z,54.40
2017-12-04T03:37:39.950Z,57.17
2017-12-04T03:40:07.345Z,54.65
2017-12-04T03:42:34.759Z,59.33
2017-12-04T03:45:02.154Z,48.93
2017-12-04T03:47:29.551Z,55.57
2017-12-04T03:49:56.948Z,69.03
2017-12-04T03:52:24.335Z,56.80
2017-12-04T03:54:51.738Z,53.33
2017-12-04T03:57:19.125Z,65.00
2017-12-04T03:59:46.521Z,53.60
2017-12-04T04:02:13.914Z,57.13
2017-12-04T04:04:41.310Z,61.03
2017-12-04T04:07:08.711Z,57.30
2017-12-04T04:09:36.108Z,54.30
2017-12-04T04:12:03.503Z,54.10
2017-12-04T04:14:30.895Z,58.40
2017-12-04T04:16:58.299Z,58.70
2017-12-04T04:19:25.722Z,56.50
2017-12-04T04:21:53.122Z,52.47
2017-12-04T04:24:20.515Z,44.80
2017-12-04T04:35:19.363Z,48.07
2017-12-04T04:37:46.765Z,53.43
2017-12-04T04:40:14.161Z,51.80
2017-12-04T04:42:41.550Z,51.53
2017-12-04T04:45:08.945Z,53.17
2017-12-04T04:47:36.346Z,55.27
2017-12-04T04:50:03.750Z,58.40
2017-12-04T04:52:31.142Z,54.03
2017-12-04T04:54:58.555Z,53.90
2017-12-04T04:57:25.954Z,50.73
2017-12-04T04:59:53.339Z,48.57
2017-12-04T05:02:20.743Z,48.03
2017-12-04T05:04:48.135Z,46.23
2017-12-04T05:07:15.526Z,54.43
2017-12-04T05:09:42.925Z,49.87
2017-12-04T05:12:10.331Z,49.80
2017-12-04T05:14:37.730Z,55.90
2017-12-04T05:17:05.126Z,58.20
2017-12-04T05:19:32.532Z,47.27
2017-12-04T05:21:59.930Z,49.20
2017-12-04T05:24:27.326Z,62.00
2017-12-04T05:26:54.718Z,54.40
2017-12-04T05:29:22.130Z,51.03
2017-12-04T05:31:49.551Z,54.00
2017-12-04T05:34:16.942Z,53.70
2017-12-04T05:36:44.341Z,59.90
2017-12-04T05:39:11.738Z,59.10
2017-12-04T05:41:39.129Z,54.87
2017-12-04T05:44:06.524Z,51.07
2017-12-04T05:46:33.934Z,59.57
2017-12-04T05:49:01.327Z,53.13
2017-12-04T05:51:28.742Z,54.00
2017-12-04T05:53:59.138Z,56.57
2017-12-04T05:56:26.590Z,50.73
2017-12-04T05:58:54.002Z,52.47
2017-12-04T06:01:21.406Z,61.40
2017-12-04T06:03:48.810Z,50.10
2017-12-04T06:06:16.207Z,59.40
2017-12-04T06:08:49.918Z,50.23
2017-12-04T06:11:17.310Z,57.17
2017-12-04T06:13:44.702Z,59.30
2017-12-04T06:16:12.110Z,57.80
2017-12-04T06:18:39.507Z,51.00
2017-12-04T06:21:06.908Z,54.40
2017-12-04T06:23:34.306Z,54.10
2017-12-04T06:26:01.710Z,57.57
2017-12-04T06:28:29.110Z,56.67
2017-12-04T06:30:56.495Z,54.80
2017-12-04T06:33:23.895Z,52.17
2017-12-04T06:35:51.284Z,54.13
2017-12-04T06:38:18.678Z,51.00
2017-12-04T06:40:46.066Z,45.90
2017-12-04T06:43:13.471Z,47.27
2017-12-04T06:45:40.868Z,49.40
2017-12-04T06:48:08.259Z,45.10
2017-12-04T06:50:35.659Z,44.00
2017-12-04T06:53:03.062Z,49.70
2017-12-04T06:55:30.464Z,46.23
2017-12-04T06:57:57.849Z,48.07
2017-12-04T07:00:25.253Z,47.00
2017-12-04T07:02:52.642Z,51.77
2017-12-04T07:05:20.038Z,51.40
2017-12-04T07:07:47.441Z,48.13
2017-12-04T07:10:14.847Z,49.87
2017-12-04T07:12:42.257Z,50.03
2017-12-04T07:15:09.663Z,45.57
2017-12-04T07:17:37.110Z,51.00
2017-12-04T07:20:04.507Z,44.63
2017-12-04T07:22:31.898Z,47.37
2017-12-04T07:24:59.298Z,51.00
2017-12-04T07:27:26.686Z,52.50
2017-12-04T07:29:54.082Z,44.20
2017-12-04T07:32:21.492Z,48.03
2017-12-04T07:34:48.902Z,47.63
2017-12-04T07:37:16.290Z,52.67
2017-12-04T07:39:43.687Z,52.97
2017-12-04T07:42:11.083Z,41.63
2017-12-04T07:44:38.480Z,47.80
2017-12-04T07:47:05.881Z,46.60
2017-12-04T07:49:33.270Z,48.97
2017-12-04T07:52:00.674Z,50.10
2017-12-04T07:54:28.069Z,49.03
2017-12-04T07:56:55.462Z,53.63
2017-12-04T07:59:22.863Z,63.20
2017-12-04T08:01:50.258Z,52.23
2017-12-04T08:04:17.660Z,52.03
2017-12-04T08:06:45.060Z,48.57
2017-12-04T08:09:12.458Z,55.43
2017-12-04T08:11:39.850Z,68.23
2017-12-04T08:14:07.257Z,52.27
2017-12-04T08:16:35.265Z,56.50
2017-12-04T08:19:02.688Z,51.23
2017-12-04T08:21:30.116Z,51.40
2017-12-04T08:23:57.511Z,57.73
2017-12-04T08:26:24.987Z,56.33
2017-12-04T08:28:52.414Z,55.43
2017-12-04T08:31:19.806Z,61.37
2017-12-04T08:33:47.254Z,57.13
2017-12-04T08:36:14.671Z,66.67
2017-12-04T08:38:42.107Z,68.40
2017-12-04T08:41:09.495Z,54.70
2017-12-04T08:43:36.906Z,57.13
2017-12-04T08:46:04.311Z,57.73
2017-12-04T08:48:31.722Z,61.20
2017-12-04T08:50:59.139Z,56.50
2017-12-04T08:53:26.530Z,63.03
2017-12-04T08:55:53.995Z,64.83
2017-12-04T08:58:21.403Z,74.47
2017-12-04T09:00:49.143Z,60.67
2017-12-04T09:03:16.531Z,66.23
2017-12-04T09:05:43.933Z,73.27
2017-12-04T09:08:11.371Z,69.57
2017-12-04T09:10:38.762Z,60.23
2017-12-04T09:13:06.179Z,61.10
2017-12-04T09:15:33.561Z,61.63
2017-12-04T09:18:00.983Z,57.70
2017-12-04T09:20:28.375Z,63.50
2017-12-04T09:22:55.765Z,59.10
2017-12-04T09:25:23.166Z,58.10
2017-12-04T09:27:50.575Z,58.67
2017-12-04T09:30:17.990Z,52.50
2017-12-04T09:32:45.398Z,69.90
2017-12-04T09:35:12.815Z,58.40
2017-12-04T09:37:40.194Z,53.33
2017-12-04T09:40:07.658Z,54.70
2017-12-04T09:42:35.081Z,60.47
2017-12-04T09:45:02.471Z,64.10
2017-12-04T09:47:29.898Z,55.77
2017-12-04T09:49:57.297Z,61.17
2017-12-04T09:52:24.702Z,64.47
2017-12-04T09:54:52.132Z,55.17
2017-12-04T09:57:19.524Z,57.47
2017-12-04T09:59:46.934Z,62.37
2017-12-04T10:02:14.335Z,61.67
2017-12-04T10:04:41.738Z,57.17
2017-12-04T10:07:09.160Z,56.97
2017-12-04T10:09:36.586Z,61.13
2017-12-04T10:12:03.999Z,58.43
2017-12-04T10:14:31.411Z,60.17
2017-12-04T10:16:58.808Z,57.07
2017-12-04T10:19:26.189Z,55.83
2017-12-04T10:21:53.639Z,51.50
2017-12-04T10:24:21.053Z,52.40
2017-12-04T10:26:48.474Z,57.53
2017-12-04T10:29:15.938Z,70.47
2017-12-04T10:31:43.381Z,54.63
2017-12-04T10:34:10.759Z,55.37
2017-12-04T10:36:38.159Z,57.23
2017-12-04T10:39:05.571Z,58.57
2017-12-04T10:41:32.974Z,50.33
2017-12-04T10:44:00.378Z,55.47
2017-12-04T10:46:27.790Z,56.00
2017-12-04T10:48:55.183Z,52.77
2017-12-04T10:51:22.597Z,51.80
2017-12-04T10:53:50.031Z,54.50
2017-12-04T10:56:17.423Z,60.50
2017-12-04T10:58:44.857Z,55.23
2017-12-04T11:01:12.300Z,56.03
2017-12-04T11:03:39.744Z,59.80
2017-12-04T11:06:07.142Z,54.17
2017-12-04T11:08:34.534Z,53.07
2017-12-04T11:11:01.966Z,63.23
2017-12-04T11:13:29.377Z,55.73
2017-12-04T11:15:56.770Z,51.07
2017-12-04T11:18:24.177Z,56.53
2017-12-04T11:20:51.583Z,54.37
2017-12-04T11:23:18.998Z,58.03
2017-12-04T11:25:46.388Z,54.87
2017-12-04T11:28:13.784Z,58.70
2017-12-04T11:30:41.196Z,55.57
2017-12-04T11:33:08.578Z,55.50
2017-12-04T11:35:35.989Z,47.73
2017-12-04T11:38:03.407Z,55.60
2017-12-04T11:40:30.797Z,49.90
2017-12-04T11:42:58.222Z,53.93
2017-12-04T11:45:25.646Z,57.50
2017-12-04T11:47:53.045Z,52.87
2017-12-04T11:50:21.274Z,53.17
2017-12-04T11:52:48.682Z,53.23
2017-12-04T11:55:16.098Z,50.00
2017-12-04T11:57:43.494Z,45.93
2017-12-04T12:00:10.937Z,50.70
2017-12-04T12:02:38.338Z,53.00
2017-12-04T12:05:06.043Z,53.10
2017-12-04T12:07:33.442Z,46.67
2017-12-04T12:10:00.859Z,51.27
2017-12-04T12:12:28.286Z,50.30
2017-12-04T12:14:55.690Z,40.83
2017-12-04T12:17:23.104Z,44.97
2017-12-04T12:19:50.470Z,51.10
2017-12-04T12:22:17.867Z,52.30
2017-12-04T12:24:45.254Z,50.80
2017-12-04T12:27:12.654Z,52.17
2017-12-04T12:29:40.050Z,56.13
2017-12-04T12:32:07.440Z,50.83
2017-12-04T12:34:34.834Z,44.60
2017-12-04T12:37:02.235Z,43.10
2017-12-04T12:39:29.629Z,37.97
2017-12-04T12:41:57.030Z,40.53
2017-12-04T12:44:24.434Z,45.03
2017-12-04T12:46:51.818Z,38.23
2017-12-04T12:49:19.205Z,40.60
2017-12-04T12:51:46.602Z,32.10
2017-12-04T12:54:13.999Z,41.53
2017-12-04T12:56:41.394Z,37.10
2017-12-04T12:59:08.838Z,34.47
2017-12-04T13:01:36.270Z,41.47
2017-12-04T13:04:03.670Z,40.03
2017-12-04T13:06:31.058Z,35.10
2017-12-04T13:08:58.458Z,35.20
2017-12-04T13:11:25.858Z,39.30
2017-12-04T13:13:53.256Z,39.10
2017-12-04T13:16:20.650Z,46.53
2017-12-04T13:18:48.070Z,40.07
2017-12-04T13:21:15.459Z,32.93
2017-12-04T13:23:42.855Z,39.83
2017-12-04T13:26:10.258Z,39.73
2017-12-04T13:28:37.650Z,37.17
2017-12-04T13:31:05.057Z,35.40
2017-12-04T13:33:44.062Z,30.43
2017-12-04T13:36:23.259Z,37.30
2017-12-04T13:38:50.646Z,36.17
2017-12-04T13:41:18.062Z,36.00
2017-12-04T13:43:45.453Z,29.67
2017-12-04T13:46:12.841Z,37.90
2017-12-04T13:48:40.235Z,28.80
2017-12-04T13:51:07.629Z,40.80
2017-12-04T13:53:35.025Z,32.60
2017-12-04T13:56:02.418Z,34.53
2017-12-04T13:58:29.822Z,29.90
2017-12-04T14:00:57.221Z,31.80
2017-12-04T14:03:24.626Z,31.70
2017-12-04T14:05:52.026Z,31.20
2017-12-04T14:08:19.430Z,36.47
2017-12-04T14:10:46.822Z,32.13
2017-12-04T14:13:14.218Z,35.20
2017-12-04T14:15:41.622Z,32.97
2017-12-04T14:18:09.018Z,23.73
2017-12-04T14:20:36.412Z,30.43
2017-12-04T14:23:03.806Z,34.30
2017-12-04T14:25:31.203Z,33.60
2017-12-04T14:27:58.599Z,40.13
2017-12-04T14:30:26.002Z,33.33
2017-12-04T14:32:53.407Z,26.50
2017-12-04T14:35:20.807Z,27.97
2017-12-04T14:37:48.202Z,33.70
2017-12-04T14:40:15.603Z,31.87
2017-12-04T14:42:42.986Z,36.77
2017-12-04T14:45:10.398Z,32.73
2017-12-04T14:47:37.790Z,30.20
2017-12-04T14:50:05.190Z,29.40
2017-12-04T14:52:32.587Z,44.97
2017-12-04T14:54:59.975Z,31.83
2017-12-04T14:57:27.390Z,34.43
2017-12-04T14:59:54.769Z,36.67
2017-12-04T15:02:22.172Z,30.63
2017-12-04T15:04:49.562Z,33.77
2017-12-04T15:07:16.997Z,36.50
2017-12-04T15:09:44.391Z,33.03
2017-12-04T15:12:11.802Z,36.60
2017-12-04T15:14:39.216Z,28.97
2017-12-04T15:17:06.621Z,28.37
2017-12-04T15:19:34.027Z,34.87
2017-12-04T15:22:01.423Z,38.27
2017-12-04T15:24:28.829Z,29.37
2017-12-04T15:26:56.219Z,38.93
2017-12-04T15:29:23.619Z,37.93
2017-12-04T15:31:51.022Z,26.40
2017-12-04T15:34:18.425Z,36.20
2017-12-04T15:36:45.818Z,38.03
2017-12-04T15:39:13.215Z,40.03
2017-12-04T15:41:40.605Z,39.87
2017-12-04T15:44:08.001Z,37.60
2017-12-04T15:46:35.392Z,35.50
2017-12-04T15:49:02.786Z,30.83
2017-12-04T15:51:30.187Z,33.40
2017-12-04T15:53:57.579Z,30.73
2017-12-04T15:56:25.003Z,30.80
2017-12-04T15:58:52.394Z,39.93
2017-12-04T16:01:19.787Z,30.77
2017-12-04T16:03:47.187Z,29.90
2017-12-04T16:06:14.578Z,32.57
2017-12-04T16:08:41.979Z,30.27
2017-12-04T16:11:09.374Z,33.13
2017-12-04T16:13:36.771Z,36.03
2017-12-04T16:16:04.162Z,44.03
2017-12-04T16:18:31.586Z,42.40
2017-12-04T16:20:58.983Z,40.07
2017-12-04T16:23:26.382Z,48.57
2017-12-04T16:25:53.781Z,39.00
2017-12-04T16:28:21.174Z,38.03
2017-12-04T16:30:48.583Z,37.03
2017-12-04T16:33:15.982Z,41.53
2017-12-04T16:35:43.398Z,47.53
2017-12-04T16:38:10.790Z,48.37
2017-12-04T16:40:38.194Z,33.80
2017-12-04T16:43:05.595Z,41.93
2017-12-04T16:45:32.986Z,38.80
2017-12-04T16:48:00.393Z,34.40
2017-12-04T16:50:27.790Z,33.40
2017-12-04T16:52:55.210Z,46.90
2017-12-04T16:55:22.627Z,36.07
2017-12-04T16:57:50.010Z,29.23
2017-12-04T17:00:17.411Z,28.77
2017-12-04T17:02:44.812Z,32.07
2017-12-04T17:05:12.210Z,36.40
2017-12-04T17:07:39.603Z,33.47
2017-12-04T17:10:07.007Z,34.03
2017-12-04T17:12:34.403Z,37.63
2017-12-04T17:15:01.810Z,35.00
2017-12-04T17:17:29.201Z,34.53
2017-12-04T17:19:56.595Z,40.00
2017-12-04T17:22:23.998Z,34.07
2017-12-04T17:24:51.391Z,38.70
2017-12-04T17:27:18.791Z,45.27
2017-12-04T17:29:46.184Z,41.57
2017-12-04T17:32:13.582Z,39.67
2017-12-04T17:34:40.978Z,39.80
2017-12-04T17:37:08.386Z,32.10
2017-12-04T17:39:35.781Z,36.07
2017-12-04T17:42:03.182Z,34.03
2017-12-04T17:44:30.583Z,37.67
2017-12-04T17:46:57.974Z,34.47
2017-12-04T17:49:25.366Z,37.70
2017-12-04T17:51:52.854Z,44.30
2017-12-04T17:54:20.257Z,34.83
2017-12-04T17:56:47.658Z,45.27
2017-12-04T17:59:15.074Z,37.53
2017-12-04T18:01:42.693Z,34.37
2017-12-04T18:04:10.085Z,34.23
2017-12-04T18:06:37.491Z,32.83
2017-12-04T18:09:04.885Z,37.43
2017-12-04T18:11:32.282Z,37.93
2017-12-04T18:13:59.679Z,45.40
2017-12-04T18:16:27.083Z,35.67
2017-12-04T18:18:54.478Z,39.13
2017-12-04T18:21:21.873Z,45.97
2017-12-04T18:23:49.274Z,38.47
2017-12-04T18:26:16.699Z,38.70
2017-12-04T18:28:44.166Z,40.83
2017-12-04T18:31:11.546Z,41.60
2017-12-04T18:33:38.950Z,53.73
2017-12-04T18:36:06.342Z,45.90
2017-12-04T18:38:33.746Z,38.07
2017-12-04T18:41:01.142Z,42.40
2017-12-04T18:43:28.543Z,44.93
2017-12-04T18:45:55.969Z,38.00
2017-12-04T18:48:23.387Z,41.33
2017-12-04T18:50:50.800Z,42.30
2017-12-04T18:53:18.198Z,47.93
2017-12-04T18:55:45.594Z,45.03
2017-12-04T18:58:12.995Z,42.20
2017-12-04T19:00:40.395Z,37.63
2017-12-04T19:03:07.802Z,50.93
2017-12-04T19:05:35.208Z,41.70
2017-12-04T19:08:02.602Z,42.93
2017-12-04T19:10:30.010Z,52.30
2017-12-04T19:12:57.447Z,46.30
2017-12-04T19:15:24.863Z,43.77
2017-12-04T19:17:52.871Z,49.03
2017-12-04T19:20:20.266Z,47.37
2017-12-04T19:22:53.581Z,44.80
2017-12-04T19:25:20.982Z,49.77
2017-12-04T19:27:48.508Z,43.27
2017-12-04T19:30:15.894Z,40.40
2017-12-04T19:32:43.291Z,44.03
2017-12-04T19:35:10.706Z,47.00
2017-12-04T19:37:38.122Z,39.20
2017-12-04T19:40:06.559Z,42.03
2017-12-04T19:42:33.966Z,48.03
2017-12-04T19:45:02.378Z,44.43
2017-12-04T19:47:29.778Z,47.03
2017-12-04T19:49:57.177Z,41.73
2017-12-04T19:52:24.572Z,40.73
2017-12-04T19:54:52.813Z,41.17
2017-12-04T19:57:20.291Z,40.17
2017-12-04T19:59:47.714Z,44.27
2017-12-04T20:02:15.111Z,46.93
2017-12-04T20:04:42.494Z,48.37
2017-12-04T20:07:09.936Z,55.27
2017-12-04T20:09:37.343Z,43.67
2017-12-04T20:12:04.754Z,47.67
2017-12-04T20:14:32.235Z,46.23
2017-12-04T20:16:59.581Z,50.70
2017-12-04T20:19:27.007Z,54.13
2017-12-04T20:21:54.418Z,43.13
2017-12-04T20:24:21.862Z,41.80
2017-12-04T20:26:49.242Z,45.47
2017-12-04T20:29:16.648Z,41.40
2017-12-04T20:31:44.036Z,48.40
2017-12-04T20:34:11.438Z,53.33
2017-12-04T20:36:38.834Z,44.97
2017-12-04T20:39:06.226Z,41.47
2017-12-04T20:41:33.627Z,50.90
2017-12-04T20:44:01.039Z,50.57
2017-12-04T20:46:28.435Z,46.90
2017-12-04T20:48:55.834Z,43.50
2017-12-04T20:51:23.226Z,48.53
2017-12-04T20:53:50.634Z,50.27
2017-12-04T20:56:18.037Z,47.07
2017-12-04T20:58:45.458Z,50.27
2017-12-04T21:01:12.865Z,43.60
2017-12-04T21:03:40.280Z,43.87
2017-12-04T21:06:07.690Z,50.13
2017-12-04T21:08:46.770Z,49.50
2017-12-04T21:14:32.671Z,42.67
2017-12-04T21:17:11.791Z,51.93
2017-12-04T21:19:39.178Z,45.20
2017-12-04T21:22:06.582Z,48.90
2017-12-04T21:24:34.005Z,45.73
2017-12-04T21:27:01.410Z,43.53
2017-12-04T21:29:28.806Z,47.67
2017-12-04T21:31:56.218Z,42.20
2017-12-04T21:34:23.623Z,46.63
2017-12-04T21:36:51.023Z,41.57
2017-12-04T21:39:18.441Z,43.47
2017-12-04T21:41:45.882Z,48.63
2017-12-04T21:44:13.258Z,43.77
2017-12-04T21:46:40.694Z,43.63
2017-12-04T21:49:08.126Z,45.70
2017-12-04T21:51:35.558Z,43.07
2017-12-04T21:54:02.961Z,48.10
2017-12-04T21:56:30.368Z,49.30
2017-12-04T21:58:57.766Z,49.67
2017-12-04T22:01:25.194Z,47.20
2017-12-04T22:03:52.587Z,50.53
2017-12-04T22:06:19.987Z,45.37
2017-12-04T22:08:47.394Z,55.63
2017-12-04T22:11:14.800Z,45.17
2017-12-04T22:13:42.198Z,57.23
2017-12-04T22:16:09.584Z,49.40
2017-12-04T22:18:36.986Z,49.80
2017-12-04T22:21:04.390Z,61.30
2017-12-04T22:23:31.814Z,49.47
2017-12-04T22:25:59.227Z,66.20
2017-12-04T22:28:26.632Z,59.60
2017-12-04T22:30:54.035Z,61.23
2017-12-04T22:33:21.451Z,49.33
2017-12-04T22:35:48.872Z,61.87
2017-12-04T22:38:16.311Z,56.63
2017-12-04T22:40:43.734Z,60.43
2017-12-04T22:43:11.149Z,66.30
2017-12-04T22:45:38.541Z,53.83
2017-12-04T22:48:05.945Z,54.00
2017-12-04T22:50:33.351Z,60.10
2017-12-04T22:53:00.752Z,62.43
2017-12-04T22:55:28.166Z,59.97
2017-12-04T22:57:55.575Z,70.77
2017-12-04T23:00:29.846Z,60.50
2017-12-04T23:02:59.155Z,61.10
2017-12-04T23:05:26.558Z,61.07
2017-12-04T23:07:53.989Z,59.40
2017-12-04T23:10:21.414Z,56.93
2017-12-04T23:12:48.810Z,62.80
2017-12-04T23:15:16.218Z,66.67
2017-12-04T23:17:43.610Z,69.73
2017-12-04T23:20:11.008Z,67.77
2017-12-04T23:22:38.396Z,67.30
2017-12-04T23:25:05.794Z,62.00
2017-12-04T23:27:33.185Z,60.67
2017-12-04T23:30:00.613Z,76.00
2017-12-04T23:32:28.002Z,67.63
2017-12-04T23:34:55.396Z,69.47
2017-12-04T23:37:22.796Z,64.30
2017-12-04T23:39:50.186Z,68.23
2017-12-04T23:42:17.933Z,69.70
2017-12-04T23:44:45.326Z,65.20
2017-12-04T23:47:12.752Z,79.27
2017-12-04T23:49:40.161Z,67.97
2017-12-04T23:52:07.612Z,67.57
2017-12-04T23:54:35.026Z,66.70
2017-12-04T23:57:02.428Z,62.70
2017-12-04T23:59:29.828Z,59.53
